Lake Oke North End current weather conditions

sailwx.info

Wind from 179 at 6 knots gusting 7

Air temperature 28.0° C
Dewpoint 25.1° C
Water temperature -7999.0° C

Last reported at 2020-Sep-28 13:30 UTC.
Time now 2020-Sep-28 14:18 UTC

Location: N 27°08' W 080°47'.
View on Google Maps.

See reports from other nearby stations

  
Tides and Currents Weather Stations Pressure Air Temp Water Temp Dewpoint Dewpoint Depression Visibility Wind Speed Wind Dir Waves Ship Positions
date/time (UTC)wind fromknots sea level pressurealtimeterstation pressurevisibilityair tempwater tempwave heightnotes
2020-Sep-28 13:30 179 6 gusting 7 28.0-7999.0
2020-Sep-28 13:15 171 6 gusting 7 27.9-7999.0
2020-Sep-28 13:00 166 6 gusting 7 27.8-7999.0
2020-Sep-28 12:30 161 7 gusting 8 27.8-7999.0
2020-Sep-28 12:15 163 6 gusting 8 27.8-7999.0
2020-Sep-28 12:00 148 5 gusting 7 27.4-7999.0
2020-Sep-28 11:45 133 4 gusting 6 27.4-7999.0
2020-Sep-28 11:30 130 5 gusting 7 27.5-7999.0
2020-Sep-28 11:15 141 6 gusting 7 27.6-7999.0
2020-Sep-28 11:00 148 6 gusting 8 27.6-7999.0
2020-Sep-28 10:45 150 6 gusting 8 27.6-7999.0
2020-Sep-28 10:30 136 6 gusting 6 27.4-7999.0
2020-Sep-28 10:15 136 5 gusting 6 27.3-7999.0
2020-Sep-28 10:00 131 5 gusting 7 27.1-7999.0
2020-Sep-28 09:45 131 5 gusting 7 27.2-7999.0
2020-Sep-28 09:30 124 4 gusting 5 27.1-7999.0
2020-Sep-28 09:15 109 5 gusting 6 27.1-7999.0
2020-Sep-28 09:00 101 5 gusting 6 27.3-7999.0
2020-Sep-28 08:45 112 5 gusting 6 27.3-7999.0
2020-Sep-28 08:30 115 5 gusting 7 27.3-7999.0
2020-Sep-28 08:15 118 6 gusting 7 27.4-7999.0
2020-Sep-28 08:00 118 6 gusting 8 27.3-7999.0
2020-Sep-28 07:45 118 7 gusting 8 27.1-7999.0
2020-Sep-28 07:30 108 6 gusting 7 27.1-7999.0
2020-Sep-28 07:15 097 6 gusting 7 27.0-7999.0
2020-Sep-28 07:00 104 5 gusting 6 27.1-7999.0
2020-Sep-28 06:45 096 5 gusting 6 27.0-7999.0
2020-Sep-28 06:30 106 6 gusting 7 27.1-7999.0
2020-Sep-28 06:15 094 5 gusting 6 27.2-7999.0
2020-Sep-28 06:00 087 5 gusting 6 27.2-7999.0
2020-Sep-28 05:45 093 3 gusting 4 27.2-7999.0
2020-Sep-28 05:30 103 4 gusting 5 27.2-7999.0
2020-Sep-28 05:15 087 4 gusting 5 27.4-7999.0
2020-Sep-28 05:00 093 4 gusting 6 27.5-7999.0
2020-Sep-28 04:45 105 5 gusting 7 27.5-7999.0
2020-Sep-28 04:30 103 5 gusting 6 27.5-7999.0
2020-Sep-28 04:15 117 4 gusting 6 27.5-7999.0
2020-Sep-28 04:00 109 5 gusting 6 27.6-7999.0
2020-Sep-28 03:45 097 5 gusting 7 27.5-7999.0
2020-Sep-28 03:30 099 6 gusting 7 27.6-7999.0
2020-Sep-28 03:15 105 5 gusting 6 27.7-7999.0
2020-Sep-28 02:45 096 6 gusting 7 27.7-7999.0
2020-Sep-28 02:30 104 6 gusting 7 27.9-7999.0
2020-Sep-28 02:15 110 6 gusting 7 27.9-7999.0
2020-Sep-28 02:00 111 6 gusting 8 27.9-7999.0
2020-Sep-28 01:45 102 7 gusting 8 27.9-7999.0
2020-Sep-28 01:30 103 8 gusting 9 28.0-7999.0
2020-Sep-28 01:15 108 10 gusting 12 28.1-7999.0
2020-Sep-28 01:00 111 10 gusting 12 28.3-7999.0
2020-Sep-28 00:30 109 11 gusting 13 28.2-7999.0
2020-Sep-28 00:15 104 10 gusting 12 28.2-7999.0
2020-Sep-28 00:00 104 11 gusting 13 28.4-7999.0
2020-Sep-27 23:45 099 11 gusting 12 28.5-7999.0
2020-Sep-27 23:30 099 11 gusting 12 28.7-7999.0
2020-Sep-27 23:15 095 10 gusting 12 28.9-7999.0
2020-Sep-27 23:00 091 10 gusting 11 29.1-7999.0
2020-Sep-27 22:45 085 11 gusting 12 29.3-7999.0
2020-Sep-27 22:30 092 9 gusting 12 29.7-7999.0
2020-Sep-27 22:15 098 11 gusting 13 30.0-7999.0
2020-Sep-27 22:00 102 10 gusting 12 30.1-7999.0
2020-Sep-27 21:45 102 10 gusting 12 30.3-7999.0
2020-Sep-27 21:30 096 9 gusting 11 30.5-7999.0
2020-Sep-27 21:00 104 10 gusting 13 30.8-7999.0
2020-Sep-27 20:45 111 10 gusting 12 30.8-7999.0
2020-Sep-27 20:30 152 5 gusting 8 30.6-7999.0
2020-Sep-27 20:15 158 3 gusting 6 30.5-7999.0
2020-Sep-27 20:00 159 2 gusting 4 30.4-7999.0
2020-Sep-27 19:45 147 3 gusting 5 30.2-7999.0
2020-Sep-27 19:30 175 5 gusting 7 30.3-7999.0
2020-Sep-27 19:15 175 3 gusting 5 30.4-7999.0
2020-Sep-27 19:00 187 3 gusting 4 30.5-7999.0
2020-Sep-27 18:45 212 2 gusting 3 30.7-7999.0
2020-Sep-27 18:30 227 2 gusting 3 30.4-7999.0
2020-Sep-27 18:15 228 3 gusting 4 30.0-7999.0
2020-Sep-27 18:00 230 4 gusting 6 29.7-7999.0
2020-Sep-27 17:45 235 4 gusting 5 29.5-7999.0
2020-Sep-27 17:30 233 4 gusting 6 29.4-7999.0
2020-Sep-27 17:15 225 4 gusting 6 29.2-7999.0
2020-Sep-27 17:00 216 4 gusting 5 29.2-7999.0
2020-Sep-27 16:45 201 4 gusting 6 29.1-7999.0
2020-Sep-27 16:30 193 5 gusting 7 29.1-7999.0
2020-Sep-27 16:15 193 4 gusting 5 29.3-7999.0
2020-Sep-27 16:00 156 3 gusting 5 29.2-7999.0
2020-Sep-27 15:45 133 3 gusting 5 29.1-7999.0
2020-Sep-27 15:30 138 3 gusting 5 28.8-7999.0
2020-Sep-27 15:15 131 4 gusting 5 28.8-7999.0
2020-Sep-27 15:00 113 4 gusting 6 28.9-7999.0
2020-Sep-27 14:45 108 6 gusting 7 28.8-7999.0
2020-Sep-27 14:30 104 5 gusting 7 28.8-7999.0
2020-Sep-27 14:15 106 5 gusting 6 28.5-7999.0
2020-Sep-27 13:45 080 5 gusting 5 27.0-7999.0
2020-Sep-27 13:30 072 5 gusting 6 26.6-7999.0
2020-Sep-27 13:15 064 5 gusting 6 26.4-7999.0
2020-Sep-27 13:00 053 6 gusting 7 26.2-7999.0
2020-Sep-27 12:45 048 6 gusting 7 26.0-7999.0
2020-Sep-27 12:30 051 6 gusting 7 25.9-7999.0
2020-Sep-27 12:15 057 6 gusting 7 25.8-7999.0
2020-Sep-27 11:45 068 7 gusting 8 25.4-7999.0
2020-Sep-27 11:30 066 6 gusting 7 25.4-7999.0
2020-Sep-27 11:15 048 5 gusting 6 25.5-7999.0
2020-Sep-27 11:00 062 5 gusting 6 25.7-7999.0
2020-Sep-27 10:45 067 4 gusting 5 25.8-7999.0
2020-Sep-27 10:30 069 4 gusting 5 26.0-7999.0
2020-Sep-27 10:15 061 4 gusting 5 26.1-7999.0
2020-Sep-27 10:00 069 3 gusting 4 26.1-7999.0
2020-Sep-27 09:45 077 3 gusting 5 26.1-7999.0
2020-Sep-27 09:30 082 4 gusting 5 26.1-7999.0
2020-Sep-27 09:15 075 4 gusting 5 26.1-7999.0
2020-Sep-27 09:00 074 4 gusting 5 26.0-7999.0
2020-Sep-27 08:45 064 4 gusting 5 26.1-7999.0
2020-Sep-27 08:30 057 4 gusting 5 26.1-7999.0
2020-Sep-27 08:15 059 4 gusting 5 26.1-7999.0
2020-Sep-27 08:00 058 3 gusting 4 26.1-7999.0
2020-Sep-27 07:45 057 5 gusting 5 26.2-7999.0
2020-Sep-27 07:30 052 4 gusting 5 26.2-7999.0
2020-Sep-27 07:15 069 2 gusting 3 26.1-7999.0
2020-Sep-27 07:00 332 2 gusting 3 26.1-7999.0
2020-Sep-27 06:45 316 1 gusting 2 26.1-7999.0
2020-Sep-27 06:30 273 1 gusting 3 26.2-7999.0
2020-Sep-27 06:15 313 2 gusting 3 26.2-7999.0
2020-Sep-27 06:00 321 2 gusting 3 26.1-7999.0
2020-Sep-27 05:45 324 3 gusting 4 26.2-7999.0
2020-Sep-27 05:30 207 4 gusting 5 26.1-7999.0
2020-Sep-27 05:15 038 4 gusting 5 26.2-7999.0
2020-Sep-27 05:00 024 3 gusting 4 26.2-7999.0
2020-Sep-27 04:45 039 3 gusting 4 26.0-7999.0
2020-Sep-27 04:30 280 2 gusting 4 25.9-7999.0
2020-Sep-27 04:15 319 3 gusting 7 25.6-7999.0
2020-Sep-27 04:00 316 5 gusting 8 25.7-7999.0
2020-Sep-27 03:45 290 5 gusting 7 25.5-7999.0
2020-Sep-27 03:30 294 7 gusting 10 25.5-7999.0
2020-Sep-27 03:15 290 8 gusting 10 26.1-7999.0
2020-Sep-27 02:45 243 7 gusting 8 27.1-7999.0
2020-Sep-27 02:30 227 8 gusting 10 27.1-7999.0
2020-Sep-27 02:15 215 9 gusting 11 27.3-7999.0
2020-Sep-27 02:00 204 8 gusting 11 27.6-7999.0
2020-Sep-27 01:45 154 10 gusting 11 28.5-7999.0
2020-Sep-27 01:30 146 9 gusting 11 28.5-7999.0
2020-Sep-27 01:15 133 10 gusting 10 28.4-7999.0
2020-Sep-27 01:00 126 11 gusting 12 28.4-7999.0
2020-Sep-27 00:30 114 10 gusting 12 28.7-7999.0
2020-Sep-27 00:15 102 11 gusting 13 28.9-7999.0
2020-Sep-27 00:00 097 11 gusting 13 29.2-7999.0
2020-Sep-26 23:45 092 10 gusting 11 29.4-7999.0
2020-Sep-26 23:30 081 12 gusting 14 29.6-7999.0
2020-Sep-26 23:15 085 13 gusting 14 30.2-7999.0
2020-Sep-26 23:00 080 9 gusting 14 31.1-7999.0
2020-Sep-26 22:45 055 5 gusting 7 31.8-7999.0
2020-Sep-26 22:30 035 1 gusting 4 32.8-7999.0
2020-Sep-26 22:15 169 0 gusting 0 33.2-7999.0
2020-Sep-26 22:00 210 0 gusting 0 33.6-7999.0
2020-Sep-26 21:45 209 32.4-7999.0
2020-Sep-26 21:30 145 1 gusting 2 31.7-7999.0
2020-Sep-26 21:15 119 1 gusting 2 31.9-7999.0
2020-Sep-26 21:00 231 0 gusting 1 32.2-7999.0
2020-Sep-26 20:30 108 1 gusting 2 31.5-7999.0
2020-Sep-26 20:15 338 3 gusting 5 31.2-7999.0
2020-Sep-26 20:00 183 4 gusting 5 31.2-7999.0
2020-Sep-26 19:45 251 5 gusting 6 31.0-7999.0
2020-Sep-26 19:30 204 6 gusting 8 30.8-7999.0
2020-Sep-26 19:15 286 6 gusting 8 30.8-7999.0
2020-Sep-26 19:00 207 6 gusting 8 30.6-7999.0
2020-Sep-26 18:30 341 6 gusting 8 30.4-7999.0
2020-Sep-26 18:15 328 5 gusting 6 30.4-7999.0
2020-Sep-26 18:00 156 4 gusting 6 30.1-7999.0
2020-Sep-26 17:30 305 3 gusting 5 29.9-7999.0
2020-Sep-26 17:15 295 5 gusting 7 29.8-7999.0
2020-Sep-26 17:00 319 4 gusting 5 29.6-7999.0
2020-Sep-26 16:45 323 4 gusting 7 29.4-7999.0
2020-Sep-26 16:30 304 3 gusting 5 29.6-7999.0
2020-Sep-26 16:15 313 2 gusting 3 28.8-7999.0
2020-Sep-26 16:00 211 3 gusting 4 28.5-7999.0
2020-Sep-26 15:45 306 3 gusting 5 28.5-7999.0
2020-Sep-26 15:30 305 5 gusting 7 28.2-7999.0
2020-Sep-26 15:15 307 5 gusting 7 28.0-7999.0
2020-Sep-26 15:00 305 6 gusting 8 27.7-7999.0
2020-Sep-26 14:45 301 5 gusting 7 27.5-7999.0
2020-Sep-26 14:30 304 5 gusting 7 27.3-7999.0
2020-Sep-26 14:15 299 6 gusting 7 27.1-7999.0